Terminal Aerodrome Forecast
Issued by NWS Lake Charles, LA

Home | Current Version | Previous Version | Text Only | Print | Product List | Glossary On
Versions: 1 2 3 4 5 6 7 8 9 10 11 12 13 14 15 16 17 18 19 20 21 22 23
000
FTUS44 KLCH 281100
TAFBPT
TAF
KBPT 281120Z 2812/2912 35011KT P6SM VCSH OVC008
     FM281500 36010KT 6SM -SHRA OVC007
      TEMPO 2818/2822 4SM SHRA OVC004
     FM290200 36005KT 4SM BR OVC003=

USA.gov is the U.S. government's official web portal to all federal, state and local government web resources and services.